createdAt,value
2019-01-29T00:01:50.692Z,6.17
2019-01-29T00:04:20.928Z,9.00
2019-01-29T00:06:51.105Z,7.30
2019-01-29T00:09:21.275Z,8.10
2019-01-29T00:11:51.536Z,10.23
2019-01-29T00:14:21.832Z,7.57
2019-01-29T00:16:52.163Z,6.97
2019-01-29T00:19:22.818Z,9.93
2019-01-29T00:21:53.706Z,8.77
2019-01-29T00:24:23.992Z,11.30
2019-01-29T00:26:54.307Z,5.93
2019-01-29T00:29:24.514Z,7.20
2019-01-29T00:31:54.703Z,6.47
2019-01-29T00:34:24.909Z,6.87
2019-01-29T00:36:55.065Z,7.40
2019-01-29T00:39:25.297Z,6.43
2019-01-29T00:41:55.533Z,4.83
2019-01-29T00:44:26.073Z,4.43
2019-01-29T00:46:56.527Z,6.30
2019-01-29T00:49:27.171Z,5.23
2019-01-29T00:51:57.669Z,7.50
2019-01-29T00:54:28.203Z,4.77
2019-01-29T00:56:58.394Z,5.97
2019-01-29T00:59:28.663Z,7.03
2019-01-29T01:01:59.050Z,8.70
2019-01-29T01:04:29.385Z,8.37
2019-01-29T01:06:59.685Z,6.75
2019-01-29T01:09:30.360Z,5.43
2019-01-29T01:12:00.981Z,6.57
2019-01-29T01:14:31.177Z,7.23
2019-01-29T01:17:01.425Z,4.80
2019-01-29T01:19:34.459Z,4.27
2019-01-29T01:22:04.873Z,6.47
2019-01-29T01:24:35.063Z,4.47
2019-01-29T01:27:05.470Z,5.77
2019-01-29T01:29:35.769Z,5.97
2019-01-29T01:32:05.953Z,6.50
2019-01-29T01:34:36.556Z,4.23
2019-01-29T01:37:07.610Z,5.83
2019-01-29T01:39:37.823Z,5.60
2019-01-29T01:42:07.960Z,6.93
2019-01-29T01:44:38.522Z,7.03
2019-01-29T01:47:08.750Z,5.43
2019-01-29T01:49:39.058Z,6.87
2019-01-29T01:52:09.796Z,5.17
2019-01-29T01:54:39.943Z,5.53
2019-01-29T01:57:10.622Z,5.63
2019-01-29T01:59:40.800Z,7.03
2019-01-29T02:02:11.531Z,8.57
2019-01-29T02:04:41.725Z,6.23
2019-01-29T02:07:12.294Z,7.00
2019-01-29T02:09:42.885Z,4.93
2019-01-29T02:12:13.006Z,5.70
2019-01-29T02:14:43.203Z,6.37
2019-01-29T02:17:13.326Z,6.20
2019-01-29T02:19:43.526Z,7.70
2019-01-29T02:22:13.699Z,5.17
2019-01-29T02:24:43.889Z,6.17
2019-01-29T02:27:14.079Z,8.90
2019-01-29T02:29:44.688Z,5.93
2019-01-29T02:32:14.911Z,9.27
2019-01-29T02:34:45.146Z,5.70
2019-01-29T02:37:15.339Z,6.20
2019-01-29T02:39:45.557Z,5.70
2019-01-29T02:42:19.297Z,4.80
2019-01-29T02:44:49.527Z,7.57
2019-01-29T02:47:19.999Z,5.70
2019-01-29T02:49:50.565Z,6.17
2019-01-29T02:52:20.674Z,7.20
2019-01-29T02:54:50.903Z,9.53
2019-01-29T02:57:21.184Z,6.83
2019-01-29T02:59:51.396Z,7.90
2019-01-29T03:02:21.556Z,8.13
2019-01-29T03:04:53.521Z,8.93
2019-01-29T03:07:24.535Z,4.07
2019-01-29T03:09:54.725Z,8.50
2019-01-29T03:12:25.512Z,7.10
2019-01-29T03:14:56.010Z,5.67
2019-01-29T03:17:26.576Z,7.33
2019-01-29T03:19:56.834Z,7.10
2019-01-29T03:22:27.493Z,8.07
2019-01-29T03:24:57.717Z,7.30
2019-01-29T03:27:27.916Z,5.37
2019-01-29T03:29:58.370Z,9.30
2019-01-29T03:32:28.536Z,7.17
2019-01-29T03:34:58.840Z,5.80
2019-01-29T03:37:28.962Z,8.50
2019-01-29T03:39:59.098Z,5.37
2019-01-29T03:42:29.344Z,8.63
2019-01-29T03:44:59.829Z,6.53
2019-01-29T03:47:30.003Z,5.93
2019-01-29T03:50:00.327Z,7.13
2019-01-29T03:52:30.582Z,6.77
2019-01-29T03:55:00.801Z,6.20
2019-01-29T03:57:31.199Z,4.37
2019-01-29T04:00:01.383Z,6.37
2019-01-29T04:02:31.576Z,6.40
2019-01-29T04:05:01.749Z,7.13
2019-01-29T04:07:31.928Z,6.10
2019-01-29T04:10:02.440Z,6.43
2019-01-29T04:12:32.956Z,4.47
2019-01-29T04:15:03.198Z,4.73
2019-01-29T04:17:33.517Z,8.30
2019-01-29T04:20:04.234Z,7.23
2019-01-29T04:22:34.494Z,6.00
2019-01-29T04:25:05.399Z,4.50
2019-01-29T04:27:35.836Z,6.07
2019-01-29T04:30:07.882Z,4.80
2019-01-29T04:32:38.076Z,7.73
2019-01-29T04:35:08.370Z,4.67
2019-01-29T04:37:38.617Z,5.40
2019-01-29T04:40:11.060Z,5.20
2019-01-29T04:42:41.257Z,6.77
2019-01-29T04:45:13.097Z,7.83
2019-01-29T04:47:43.797Z,4.47
2019-01-29T04:50:16.184Z,3.97
2019-01-29T04:52:46.371Z,6.47
2019-01-29T04:55:17.087Z,4.73
2019-01-29T04:57:47.200Z,3.90
2019-01-29T05:00:25.250Z,4.70
2019-01-29T05:02:55.428Z,4.30
2019-01-29T05:05:26.241Z,6.00
2019-01-29T05:07:56.462Z,6.37
2019-01-29T05:10:26.637Z,4.60
2019-01-29T05:12:56.833Z,5.57
2019-01-29T05:15:27.121Z,5.10
2019-01-29T05:17:57.309Z,5.23
2019-01-29T05:20:27.838Z,7.03
2019-01-29T05:22:58.057Z,6.63
2019-01-29T05:25:28.236Z,6.77
2019-01-29T05:27:58.471Z,5.17
2019-01-29T05:30:28.647Z,7.47
2019-01-29T05:32:58.851Z,7.80
2019-01-29T05:35:29.887Z,5.87
2019-01-29T05:38:00.113Z,7.40
2019-01-29T05:40:30.358Z,4.93
2019-01-29T05:43:00.548Z,8.20
2019-01-29T05:45:30.816Z,6.20
2019-01-29T05:48:01.033Z,6.53
2019-01-29T05:50:31.200Z,5.47
2019-01-29T05:53:01.330Z,8.07
2019-01-29T05:55:31.686Z,7.90
2019-01-29T05:58:01.886Z,6.97
2019-01-29T06:00:35.746Z,4.90
2019-01-29T06:03:06.126Z,8.63
2019-01-29T06:05:36.390Z,8.17
2019-01-29T06:08:06.626Z,7.00
2019-01-29T06:10:37.176Z,5.73
2019-01-29T06:13:08.036Z,7.37
2019-01-29T06:15:38.650Z,5.63
2019-01-29T06:18:08.961Z,4.77
2019-01-29T06:20:39.534Z,7.17
2019-01-29T06:23:09.783Z,5.67
2019-01-29T06:25:40.094Z,6.53
2019-01-29T06:28:10.283Z,5.63
2019-01-29T06:30:40.450Z,6.00
2019-01-29T06:33:10.712Z,7.37
2019-01-29T06:35:41.190Z,8.47
2019-01-29T06:38:11.816Z,6.03
2019-01-29T06:40:41.980Z,7.33
2019-01-29T06:43:12.178Z,7.13
2019-01-29T06:45:42.790Z,8.57
2019-01-29T06:48:13.013Z,6.93
2019-01-29T06:50:43.388Z,9.97
2019-01-29T06:53:14.076Z,8.43
2019-01-29T06:55:44.327Z,7.33
2019-01-29T06:58:14.562Z,7.80
2019-01-29T07:00:44.792Z,7.20
2019-01-29T07:03:15.025Z,6.10
2019-01-29T07:05:45.611Z,7.10
2019-01-29T07:08:15.817Z,8.50
2019-01-29T07:10:46.045Z,8.53
2019-01-29T07:13:16.381Z,9.97
2019-01-29T07:16:12.792Z,8.27
2019-01-29T07:18:50.577Z,11.17
2019-01-29T07:21:20.833Z,7.47
2019-01-29T07:23:51.112Z,9.17
2019-01-29T07:26:21.408Z,8.70
2019-01-29T07:28:51.677Z,8.67
2019-01-29T07:31:22.373Z,6.47
2019-01-29T07:33:52.591Z,9.13
2019-01-29T07:36:22.829Z,11.43
2019-01-29T07:38:53.148Z,8.80
2019-01-29T07:41:23.311Z,8.13
2019-01-29T07:43:54.179Z,9.37
2019-01-29T07:46:24.483Z,8.67
2019-01-29T07:48:54.774Z,9.87
2019-01-29T07:51:25.059Z,10.27
2019-01-29T07:56:24.338Z,7.67
2019-01-29T07:58:54.968Z,13.67
2019-01-29T08:01:25.476Z,8.88
2019-01-29T08:03:55.806Z,7.93
2019-01-29T08:06:26.070Z,9.33
2019-01-29T08:08:56.941Z,8.33
2019-01-29T08:11:27.147Z,8.20
2019-01-29T08:13:57.307Z,9.67
2019-01-29T08:16:27.686Z,9.47
2019-01-29T08:18:58.286Z,10.10
2019-01-29T08:21:28.875Z,8.67
2019-01-29T08:23:59.090Z,8.10
2019-01-29T08:26:29.713Z,9.47
2019-01-29T08:28:59.897Z,8.47
2019-01-29T08:31:30.114Z,9.17
2019-01-29T08:34:00.314Z,9.00
2019-01-29T08:36:30.601Z,7.80
2019-01-29T08:39:00.816Z,9.30
2019-01-29T08:41:31.048Z,9.80
2019-01-29T08:44:01.251Z,5.83
2019-01-29T08:46:31.936Z,10.17
2019-01-29T08:49:02.244Z,7.63
2019-01-29T08:51:32.781Z,8.07
2019-01-29T08:54:02.924Z,8.20
2019-01-29T08:56:33.207Z,8.73
2019-01-29T08:59:03.522Z,6.53
2019-01-29T09:01:33.774Z,9.93
2019-01-29T09:04:03.964Z,8.80
2019-01-29T09:06:34.443Z,9.77
2019-01-29T09:09:08.692Z,8.20
2019-01-29T09:11:38.972Z,6.70
2019-01-29T09:14:09.205Z,9.43
2019-01-29T09:16:39.417Z,8.47
2019-01-29T09:19:09.639Z,8.47
2019-01-29T09:21:39.910Z,8.17
2019-01-29T09:24:10.214Z,10.83
2019-01-29T09:26:40.461Z,8.60
2019-01-29T09:29:17.609Z,9.67
2019-01-29T09:31:42.531Z,6.93
2019-01-29T09:34:12.702Z,9.60
2019-01-29T09:36:42.877Z,7.47
2019-01-29T09:39:13.701Z,8.70
2019-01-29T09:41:51.056Z,8.57
2019-01-29T09:44:21.747Z,8.57
2019-01-29T09:46:51.968Z,5.80
2019-01-29T09:49:22.575Z,8.47
2019-01-29T09:51:54.715Z,7.30
2019-01-29T09:54:26.538Z,7.80
2019-01-29T09:56:57.103Z,8.53
2019-01-29T09:59:27.235Z,9.90
2019-01-29T10:01:57.514Z,7.83
2019-01-29T10:04:27.663Z,9.37
2019-01-29T10:06:58.391Z,9.20
2019-01-29T10:09:28.942Z,7.87
2019-01-29T10:11:59.470Z,7.03
2019-01-29T10:14:29.714Z,5.40
2019-01-29T10:17:00.300Z,7.57
2019-01-29T10:19:30.643Z,8.23
2019-01-29T10:22:01.276Z,8.07
2019-01-29T10:24:31.583Z,5.80
2019-01-29T10:27:01.802Z,8.00
2019-01-29T10:29:32.878Z,6.87
2019-01-29T10:32:03.062Z,6.70
2019-01-29T10:34:33.300Z,7.23
2019-01-29T10:37:04.424Z,6.93
2019-01-29T10:39:34.621Z,6.97
2019-01-29T10:42:06.028Z,6.30
2019-01-29T10:44:36.271Z,8.27
2019-01-29T10:47:06.713Z,8.10
2019-01-29T10:49:37.451Z,8.27
2019-01-29T10:52:07.732Z,9.73
2019-01-29T10:54:37.975Z,7.83
2019-01-29T10:57:10.127Z,9.80
2019-01-29T10:59:40.510Z,7.50
2019-01-29T11:02:10.820Z,8.20
2019-01-29T11:04:41.464Z,7.70
2019-01-29T11:07:12.410Z,7.53
2019-01-29T11:09:42.701Z,7.07
2019-01-29T11:12:13.253Z,8.63
2019-01-29T11:14:43.465Z,11.33
2019-01-29T11:17:14.085Z,8.47
2019-01-29T11:19:44.316Z,8.87
2019-01-29T11:22:14.903Z,12.67
2019-01-29T11:24:45.181Z,7.40
2019-01-29T11:27:15.420Z,6.90
2019-01-29T11:29:45.655Z,8.03
2019-01-29T11:32:16.336Z,8.97
2019-01-29T11:34:46.568Z,8.50
2019-01-29T11:37:17.125Z,7.58
2019-01-29T11:39:47.350Z,7.57
2019-01-29T11:42:17.596Z,7.07
2019-01-29T11:44:47.831Z,7.30
2019-01-29T11:47:18.449Z,9.60
2019-01-29T11:49:48.980Z,8.20
2019-01-29T11:52:19.482Z,12.17
2019-01-29T11:54:50.561Z,7.73
2019-01-29T11:57:20.766Z,9.93
2019-01-29T11:59:51.262Z,8.77
2019-01-29T12:02:28.279Z,12.83
2019-01-29T12:04:53.392Z,10.37
2019-01-29T12:07:23.547Z,10.17
2019-01-29T12:09:53.980Z,10.83
2019-01-29T12:12:24.863Z,10.37
2019-01-29T12:14:55.405Z,12.07
2019-01-29T12:17:25.558Z,9.97
2019-01-29T12:19:55.966Z,10.00
2019-01-29T12:22:26.688Z,7.47
2019-01-29T12:24:57.077Z,7.30
2019-01-29T12:27:27.934Z,6.97
2019-01-29T12:29:58.738Z,7.67
2019-01-29T12:32:29.386Z,8.03
2019-01-29T12:34:59.631Z,8.53
2019-01-29T12:37:29.914Z,12.50
2019-01-29T12:40:00.410Z,9.07
2019-01-29T12:42:30.619Z,8.43
2019-01-29T12:45:00.865Z,7.47
2019-01-29T12:47:31.108Z,9.73
2019-01-29T12:50:01.290Z,8.87
2019-01-29T12:52:42.982Z,8.27
2019-01-29T12:55:13.616Z,9.70
2019-01-29T12:57:44.239Z,10.57
2019-01-29T13:00:16.492Z,8.33
2019-01-29T13:02:47.046Z,10.67
2019-01-29T13:05:20.194Z,10.17
2019-01-29T13:07:50.379Z,10.43
2019-01-29T13:10:21.622Z,10.23
2019-01-29T13:12:52.151Z,9.17
2019-01-29T13:15:25.147Z,8.67
2019-01-29T13:17:55.461Z,9.30
2019-01-29T13:20:25.657Z,9.67
2019-01-29T13:22:56.115Z,10.70
2019-01-29T13:25:26.826Z,8.30
2019-01-29T13:27:57.382Z,9.60
2019-01-29T13:30:30.445Z,11.37
2019-01-29T13:33:00.938Z,8.20
2019-01-29T13:35:35.834Z,9.80
2019-01-29T13:38:07.004Z,9.33
2019-01-29T13:40:37.236Z,10.57
2019-01-29T13:43:09.060Z,10.58
2019-01-29T13:45:40.459Z,7.43
2019-01-29T13:48:10.775Z,8.20
2019-01-29T13:50:47.469Z,10.87
2019-01-29T13:53:17.671Z,8.33
2019-01-29T13:55:48.367Z,8.60
2019-01-29T13:58:19.047Z,8.53
2019-01-29T14:00:49.577Z,9.00
2019-01-29T14:03:20.149Z,7.87
2019-01-29T14:05:50.738Z,10.03
2019-01-29T14:08:21.039Z,6.77
2019-01-29T14:10:51.248Z,10.23
2019-01-29T14:13:22.014Z,8.90
2019-01-29T14:15:56.627Z,11.13
2019-01-29T14:18:29.091Z,7.77
2019-01-29T14:21:00.578Z,8.03
2019-01-29T14:23:31.195Z,8.63
2019-01-29T14:26:01.462Z,9.37
2019-01-29T14:28:32.068Z,8.90
2019-01-29T14:31:02.228Z,9.70
2019-01-29T14:33:32.500Z,11.37
2019-01-29T14:36:02.856Z,10.13
2019-01-29T14:39:20.997Z,7.40
2019-01-29T14:41:51.165Z,9.97
2019-01-29T14:44:51.694Z,9.33
2019-01-29T14:47:22.266Z,9.23
2019-01-29T14:49:52.403Z,10.40
2019-01-29T14:52:22.686Z,8.27
2019-01-29T14:54:53.009Z,10.50
2019-01-29T14:57:23.150Z,8.33
2019-01-29T14:59:53.504Z,8.33
2019-01-29T15:02:23.787Z,8.87
2019-01-29T15:04:54.053Z,11.30
2019-01-29T15:07:30.293Z,8.87
2019-01-29T15:09:56.080Z,7.70
2019-01-29T15:12:27.150Z,12.43
2019-01-29T15:14:57.671Z,9.03
2019-01-29T15:17:53.023Z,8.93
2019-01-29T15:20:23.461Z,10.43
2019-01-29T15:22:54.439Z,10.10
2019-01-29T15:25:25.099Z,11.57
2019-01-29T15:27:55.300Z,11.33
2019-01-29T15:30:28.138Z,7.37
2019-01-29T15:32:58.878Z,10.50
2019-01-29T15:35:29.133Z,7.80
2019-01-29T15:37:59.712Z,12.47
2019-01-29T15:40:30.969Z,8.80
2019-01-29T15:43:01.145Z,9.77
2019-01-29T15:45:32.209Z,8.37
2019-01-29T15:48:02.765Z,11.07
2019-01-29T15:50:33.385Z,7.97
2019-01-29T15:53:03.911Z,10.03
2019-01-29T15:55:34.658Z,9.53
2019-01-29T15:58:07.200Z,10.37
2019-01-29T16:00:37.570Z,9.77
2019-01-29T16:03:08.127Z,7.75
2019-01-29T16:05:38.937Z,7.73
2019-01-29T16:08:09.736Z,7.40
2019-01-29T16:10:40.213Z,8.43
2019-01-29T16:13:10.545Z,8.13
2019-01-29T16:15:41.019Z,6.83
2019-01-29T16:18:11.448Z,6.93
2019-01-29T16:20:41.746Z,8.60
2019-01-29T16:23:13.026Z,8.90
2019-01-29T16:25:43.219Z,7.10
2019-01-29T16:28:13.893Z,7.43
2019-01-29T16:30:44.473Z,9.73
2019-01-29T16:33:14.838Z,10.47
2019-01-29T16:35:45.603Z,8.63
2019-01-29T16:38:15.931Z,7.77
2019-01-29T16:40:46.648Z,8.93
2019-01-29T16:43:17.758Z,8.40
2019-01-29T16:45:47.906Z,7.27
2019-01-29T16:48:18.136Z,8.30
2019-01-29T16:50:48.731Z,9.20
2019-01-29T16:53:18.880Z,7.30
2019-01-29T16:55:49.344Z,8.53
2019-01-29T16:58:19.615Z,7.97
2019-01-29T17:00:49.850Z,8.87
2019-01-29T17:03:20.320Z,12.87
2019-01-29T17:05:50.552Z,12.37
2019-01-29T17:08:20.741Z,11.73
2019-01-29T17:10:50.916Z,11.33
2019-01-29T17:13:21.184Z,10.00
2019-01-29T17:15:51.916Z,10.50
2019-01-29T17:18:22.839Z,10.77
2019-01-29T17:20:53.480Z,11.80
2019-01-29T17:23:23.749Z,11.67
2019-01-29T17:25:53.930Z,9.97
2019-01-29T17:28:24.542Z,12.00
2019-01-29T17:30:55.433Z,9.20
2019-01-29T17:33:25.844Z,11.77
2019-01-29T17:35:56.477Z,10.50
2019-01-29T17:38:26.722Z,9.67
2019-01-29T17:40:56.978Z,12.13
2019-01-29T17:43:27.241Z,14.03
2019-01-29T17:45:57.805Z,12.20
2019-01-29T17:48:27.965Z,11.53
2019-01-29T17:50:58.894Z,12.10
2019-01-29T17:53:29.091Z,11.27
2019-01-29T17:55:59.334Z,8.87
2019-01-29T17:58:29.883Z,10.50
2019-01-29T18:01:01.453Z,11.60
2019-01-29T18:03:32.066Z,8.30
2019-01-29T18:06:03.287Z,8.37
2019-01-29T18:08:33.869Z,9.33
2019-01-29T18:11:07.286Z,11.80
2019-01-29T18:13:37.959Z,10.67
2019-01-29T18:16:08.443Z,10.77
2019-01-29T18:18:39.075Z,10.63
2019-01-29T18:21:09.385Z,10.07
2019-01-29T18:23:39.605Z,9.50
2019-01-29T18:26:10.123Z,12.07
2019-01-29T18:28:40.625Z,9.43
2019-01-29T18:31:11.165Z,12.13
2019-01-29T18:33:41.444Z,9.70
2019-01-29T18:36:11.632Z,11.43
2019-01-29T18:38:41.877Z,9.93
2019-01-29T18:41:12.125Z,9.70
2019-01-29T18:43:42.481Z,9.63
2019-01-29T18:46:12.908Z,10.80
2019-01-29T18:48:43.169Z,10.43
2019-01-29T18:51:13.348Z,11.40
2019-01-29T18:53:43.612Z,10.03
2019-01-29T18:56:13.848Z,10.10
2019-01-29T18:58:44.534Z,11.70
2019-01-29T19:01:15.069Z,10.97
2019-01-29T19:03:45.841Z,11.60
2019-01-29T19:06:16.515Z,11.07
2019-01-29T19:08:47.034Z,11.23
2019-01-29T19:11:17.236Z,10.37
2019-01-29T19:13:47.928Z,13.70
2019-01-29T19:16:18.164Z,11.20
2019-01-29T19:18:48.811Z,15.53
2019-01-29T19:21:19.066Z,13.70
2019-01-29T19:23:50.000Z,10.47
2019-01-29T19:26:20.481Z,11.90
2019-01-29T19:28:50.636Z,13.67
2019-01-29T19:31:21.223Z,10.70
2019-01-29T19:33:51.412Z,9.97
2019-01-29T19:36:22.418Z,12.90
2019-01-29T19:38:52.993Z,14.00
2019-01-29T19:41:23.216Z,13.67
2019-01-29T19:43:53.490Z,14.90
2019-01-29T19:46:23.851Z,11.83
2019-01-29T19:48:54.520Z,11.03
2019-01-29T19:51:24.774Z,14.73
2019-01-29T19:53:55.036Z,13.40
2019-01-29T19:56:25.328Z,11.03
2019-01-29T19:58:55.966Z,13.27
2019-01-29T20:01:26.590Z,12.00
2019-01-29T20:03:56.863Z,12.47
2019-01-29T20:06:27.228Z,12.77
2019-01-29T20:08:57.633Z,13.80
2019-01-29T20:11:28.341Z,12.77
2019-01-29T20:13:59.141Z,13.23
2019-01-29T20:16:29.328Z,12.47
2019-01-29T20:18:59.683Z,12.43
2019-01-29T20:21:30.234Z,11.30
2019-01-29T20:24:00.963Z,12.23
2019-01-29T20:26:31.509Z,12.50
2019-01-29T20:29:01.717Z,13.77
2019-01-29T20:31:31.934Z,13.80
2019-01-29T20:34:02.484Z,14.23
2019-01-29T20:36:32.751Z,14.23
2019-01-29T20:39:04.869Z,15.37
2019-01-29T20:41:35.066Z,11.00
2019-01-29T20:44:05.756Z,12.50
2019-01-29T20:46:36.209Z,15.50
2019-01-29T20:49:06.747Z,12.93
2019-01-29T20:51:37.019Z,14.10
2019-01-29T20:54:07.596Z,13.57
2019-01-29T20:56:38.219Z,13.37
2019-01-29T20:59:08.560Z,12.40
2019-01-29T21:01:39.021Z,14.83
2019-01-29T21:04:09.582Z,12.80
2019-01-29T21:06:39.850Z,11.47
2019-01-29T21:09:10.531Z,12.13
2019-01-29T21:11:40.968Z,12.40
2019-01-29T21:14:11.199Z,10.30
2019-01-29T21:16:41.431Z,11.40
2019-01-29T21:19:11.672Z,10.63
2019-01-29T21:21:41.963Z,12.13
2019-01-29T21:24:12.482Z,13.23
2019-01-29T21:26:43.156Z,11.70
2019-01-29T21:29:13.333Z,10.23
2019-01-29T21:31:43.546Z,11.57
2019-01-29T21:34:13.764Z,13.50
2019-01-29T21:36:43.898Z,12.13
2019-01-29T21:39:14.082Z,11.07
2019-01-29T21:41:44.679Z,10.80
2019-01-29T21:44:15.199Z,10.63
2019-01-29T21:46:45.426Z,12.70
2019-01-29T21:49:15.936Z,12.03
2019-01-29T21:51:46.179Z,13.63
2019-01-29T21:54:16.896Z,10.67
2019-01-29T21:56:49.621Z,12.83
2019-01-29T21:59:18.988Z,11.23
2019-01-29T22:01:49.520Z,12.07
2019-01-29T22:04:20.232Z,12.40
2019-01-29T22:06:50.824Z,11.50
2019-01-29T22:09:21.617Z,11.83
2019-01-29T22:11:51.859Z,11.53
2019-01-29T22:14:22.166Z,12.27
2019-01-29T22:16:52.376Z,10.20
2019-01-29T22:19:22.612Z,13.13
2019-01-29T22:21:53.102Z,10.87
2019-01-29T22:24:23.630Z,11.03
2019-01-29T22:26:53.842Z,13.67
2019-01-29T22:29:24.065Z,13.03
2019-01-29T22:31:54.742Z,13.47
2019-01-29T22:34:24.925Z,10.10
2019-01-29T22:36:55.165Z,10.73
2019-01-29T22:39:25.341Z,11.53
2019-01-29T22:41:55.608Z,12.73
2019-01-29T22:44:25.865Z,12.43
2019-01-29T22:46:56.481Z,13.87
2019-01-29T22:49:26.928Z,11.93
2019-01-29T22:51:57.207Z,11.97
2019-01-29T22:54:27.622Z,12.70
2019-01-29T22:56:58.199Z,12.20
2019-01-29T22:59:33.434Z,13.30
2019-01-29T23:02:00.420Z,14.17
2019-01-29T23:04:33.430Z,14.97
2019-01-29T23:07:24.744Z,12.13
2019-01-29T23:09:54.989Z,14.37
2019-01-29T23:12:25.672Z,15.13
2019-01-29T23:14:55.925Z,15.57
2019-01-29T23:17:26.545Z,16.27
2019-01-29T23:19:57.154Z,12.47
2019-01-29T23:22:27.359Z,15.53
2019-01-29T23:24:58.092Z,16.60
2019-01-29T23:27:28.362Z,14.73
2019-01-29T23:29:58.523Z,19.50
2019-01-29T23:32:28.860Z,15.13
2019-01-29T23:34:59.188Z,15.80
2019-01-29T23:37:29.410Z,17.83
2019-01-29T23:39:59.698Z,20.27
2019-01-29T23:42:29.931Z,18.73
2019-01-29T23:45:00.576Z,18.87
2019-01-29T23:47:30.810Z,20.97
2019-01-29T23:50:01.010Z,22.07
2019-01-29T23:52:31.159Z,23.47
2019-01-29T23:55:01.878Z,21.23
2019-01-29T23:57:32.106Z,20.60
